Time;durP1;ratioP1;P1;durP2;ratioP2;P2;SDS_P1;SDS_P2;PMS_P1;PMS_P2;Temp;Humidity;BMP_temperature;BMP_pressure;BME280_temperature;BME280_humidity;BME280_pressure;Samples;Min_cycle;Max_cycle;Signal;HPM_P1;HPM_P2
2022/09/26 00:00:50;;;;;;;14.98;13.45;;;;;;;13.50;100.00;99193.56;6333623;22;20021;-87
2022/09/26 00:03:15;;;;;;;16.70;14.85;;;;;;;13.52;100.00;99193.81;6307093;22;20361;-88
2022/09/26 00:05:40;;;;;;;17.45;14.82;;;;;;;13.47;100.00;99198.03;6335711;22;20011;-88
2022/09/26 00:08:06;;;;;;;16.45;14.27;;;;;;;13.47;100.00;99188.91;6333950;22;20063;-87
2022/09/26 00:10:33;;;;;;;15.75;14.15;;;;;;;13.49;100.00;99184.41;6336021;22;20007;-88
2022/09/26 00:12:59;;;;;;;16.10;14.50;;;;;;;13.45;100.00;99183.06;6333715;22;20038;-87
2022/09/26 00:15:25;;;;;;;14.88;13.38;;;;;;;13.51;100.00;99181.13;6307089;22;20387;-87
2022/09/26 00:17:50;;;;;;;15.27;13.68;;;;;;;13.51;100.00;99179.13;6336264;22;20399;-88
2022/09/26 00:20:16;;;;;;;15.93;13.65;;;;;;;13.53;100.00;99178.66;6335887;22;20007;-87
2022/09/26 00:22:42;;;;;;;16.40;14.60;;;;;;;13.51;100.00;99170.00;6336645;22;20002;-88
2022/09/26 00:25:07;;;;;;;16.42;14.70;;;;;;;13.54;100.00;99177.41;6335192;22;20444;-88
2022/09/26 00:27:33;;;;;;;15.65;13.93;;;;;;;13.57;100.00;99168.09;6306728;22;20003;-88
2022/09/26 00:29:58;;;;;;;17.13;15.32;;;;;;;13.55;100.00;99163.00;6280922;22;20033;-87
2022/09/26 00:32:24;;;;;;;17.58;14.90;;;;;;;13.52;100.00;99165.97;6333525;22;19999;-87
2022/09/26 00:34:49;;;;;;;16.58;14.88;;;;;;;13.49;100.00;99166.94;6335768;22;20019;-87
2022/09/26 00:37:16;;;;;;;16.90;15.27;;;;;;;13.48;100.00;99170.97;6305883;22;20432;-87
2022/09/26 00:39:41;;;;;;;16.95;15.25;;;;;;;13.48;100.00;99168.16;6307156;22;20073;-87
2022/09/26 00:42:12;;;;;;;17.15;15.35;;;;;;;13.48;100.00;99171.72;6306106;22;20562;-88
2022/09/26 00:44:49;;;;;;;16.48;14.77;;;;;;;13.44;100.00;99170.38;6307186;22;20014;-87
2022/09/26 00:47:33;;;;;;;15.52;13.93;;;;;;;13.44;100.00;99170.38;6333844;22;20480;-87
2022/09/26 00:50:07;;;;;;;14.98;13.48;;;;;;;13.41;100.00;99165.75;6307742;22;20034;-87
2022/09/26 00:52:37;;;;;;;14.90;13.35;;;;;;;13.37;100.00;99151.25;6282758;22;20002;-87
2022/09/26 00:55:05;;;;;;;15.50;13.85;;;;;;;13.33;100.00;99153.44;6334440;22;20317;-87
2022/09/26 00:57:36;;;;;;;14.90;13.30;;;;;;;13.28;100.00;99148.53;6280657;22;19999;-88
2022/09/26 01:00:07;;;;;;;15.93;14.23;;;;;;;13.26;100.00;99159.41;6307878;22;20018;-87
2022/09/26 01:02:33;;;;;;;15.80;14.18;;;;;;;13.23;100.00;99163.88;6334680;22;20085;-87
2022/09/26 01:04:59;;;;;;;16.15;14.52;;;;;;;13.23;100.00;99157.53;6306881;22;20030;-87
2022/09/26 01:07:26;;;;;;;15.43;13.82;;;;;;;13.19;100.00;99171.66;6307988;22;20064;-87
2022/09/26 01:09:52;;;;;;;16.40;14.15;;;;;;;13.19;100.00;99166.06;6307293;22;20017;-86
2022/09/26 01:12:17;;;;;;;16.42;14.43;;;;;;;13.18;100.00;99174.94;6335639;22;20014;-87
2022/09/26 01:14:44;;;;;;;14.30;12.82;;;;;;;13.24;100.00;99184.91;6280638;22;20019;-86
2022/09/26 01:17:10;;;;;;;14.95;12.98;;;;;;;13.27;100.00;99166.47;6305541;22;20266;-86
2022/09/26 01:20:03;;;;;;;14.82;13.38;;;;;;;13.24;100.00;99168.22;6332535;22;20018;-86
2022/09/26 01:23:00;;;;;;;15.63;14.13;;;;;;;13.26;100.00;99157.38;6305748;22;20018;-85
2022/09/26 01:25:55;;;;;;;14.05;12.70;;;;;;;13.26;100.00;99159.41;6314938;22;20014;-86
2022/09/26 01:28:58;;;;;;;15.30;13.70;;;;;;;13.26;100.00;99154.59;6319517;22;20007;-86
2022/09/26 01:34:49;;;;;;;14.95;13.45;;;;;;;13.19;100.00;99149.38;6303216;22;20011;-86
2022/09/26 01:37:48;;;;;;;16.27;14.68;;;;;;;13.11;100.00;99127.94;6334956;22;20475;-86
2022/09/26 01:40:28;;;;;;;18.52;14.93;;;;;;;13.09;100.00;99134.75;6335595;22;20249;-87
2022/09/26 01:43:22;;;;;;;15.25;13.75;;;;;;;13.12;100.00;99146.97;6307734;22;20034;-86
2022/09/26 01:46:04;;;;;;;17.60;15.48;;;;;;;13.11;100.00;99147.44;6284104;22;20015;-87
2022/09/26 01:48:33;;;;;;;14.88;13.48;;;;;;;13.07;100.00;99128.88;6309290;22;20023;-85
2022/09/26 01:51:12;;;;;;;12.45;11.23;;;;;;;13.14;100.00;99138.13;6309245;22;20019;-87
2022/09/26 01:53:43;;;;;;;14.52;13.05;;;;;;;13.14;100.00;99140.94;6309516;22;20101;-86
2022/09/26 01:56:15;;;;;;;14.95;13.45;;;;;;;13.17;100.00;99145.53;6283643;22;20011;-86
2022/09/26 01:58:49;;;;;;;15.25;13.75;;;;;;;13.12;100.00;99138.59;6283822;22;20433;-88
2022/09/26 02:01:16;;;;;;;15.82;14.13;;;;;;;13.10;100.00;99116.06;6283135;22;20044;-87
2022/09/26 02:03:54;;;;;;;15.50;14.00;;;;;;;13.17;100.00;99117.69;6277746;22;20084;-86
2022/09/26 02:06:36;;;;;;;15.13;13.60;;;;;;;13.14;100.00;99111.06;6277193;22;20460;-87
2022/09/26 02:09:11;;;;;;;14.05;12.70;;;;;;;13.18;100.00;99124.81;6251847;22;20015;-88
2022/09/26 02:11:41;;;;;;;14.63;13.13;;;;;;;13.19;100.00;99109.63;6253354;22;20013;-87
2022/09/26 02:14:21;;;;;;;16.52;14.82;;;;;;;13.17;100.00;99100.97;6252692;22;20023;-87
2022/09/26 02:16:49;;;;;;;16.08;14.57;;;;;;;13.14;100.00;99099.16;6252141;22;20015;-88
2022/09/26 02:19:21;;;;;;;15.70;13.98;;;;;;;13.18;100.00;99102.53;6251503;22;20011;-87
2022/09/26 02:21:47;;;;;;;16.00;14.30;;;;;;;13.17;100.00;99096.19;6277678;22;20007;-88
2022/09/26 02:24:13;;;;;;;15.95;13.70;;;;;;;13.18;100.00;99097.72;6277363;22;20077;-88
2022/09/26 02:26:41;;;;;;;14.50;13.10;;;;;;;13.15;100.00;99097.88;6276853;22;20064;-88
2022/09/26 02:29:08;;;;;;;15.82;14.18;;;;;;;13.19;100.00;99098.47;6252922;22;20094;-87
2022/09/26 02:31:37;;;;;;;15.05;13.55;;;;;;;13.17;100.00;99100.97;6274729;22;20094;-87
2022/09/26 02:34:03;;;;;;;15.60;14.00;;;;;;;13.15;100.00;99092.31;6251423;22;20047;-87
2022/09/26 02:36:32;;;;;;;16.73;15.02;;;;;;;12.99;100.00;99080.38;6249756;22;20010;-88
2022/09/26 02:38:59;;;;;;;15.88;14.23;;;;;;;13.07;100.00;99089.09;6278224;22;20007;-88
2022/09/26 02:42:08;;;;;;;14.60;13.10;;;;;;;13.07;100.00;99086.31;6277592;22;20011;-88
2022/09/26 02:44:58;;;;;;;15.63;13.95;;;;;;;13.07;100.00;99087.09;6260777;22;20287;-88
2022/09/26 02:47:29;;;;;;;14.40;13.00;;;;;;;13.06;100.00;99080.00;6275624;22;20279;-88
2022/09/26 02:50:10;;;;;;;17.15;15.38;;;;;;;12.93;100.00;99078.72;6277212;22;20011;-88
2022/09/26 02:53:06;;;;;;;17.50;15.77;;;;;;;12.85;100.00;99089.47;6276646;22;20042;-89
2022/09/26 02:56:02;;;;;;;19.42;16.98;;;;;;;12.75;100.00;99104.66;6272876;22;20015;-89
2022/09/26 02:58:58;;;;;;;21.95;18.02;;;;;;;12.76;100.00;99097.88;6275658;22;20022;-88
2022/09/26 03:01:31;;;;;;;19.55;17.60;;;;;;;12.82;100.00;99090.38;6252235;22;20020;-88
2022/09/26 03:04:33;;;;;;;17.60;15.75;;;;;;;12.83;100.00;99097.50;6291635;22;20015;-89
2022/09/26 03:07:02;;;;;;;16.50;14.82;;;;;;;12.88;100.00;99091.28;6307640;22;20349;-88
2022/09/26 03:09:29;;;;;;;19.42;17.42;;;;;;;12.82;100.00;99070.91;6307565;22;20017;-89
2022/09/26 03:11:57;;;;;;;20.55;16.42;;;;;;;12.86;100.00;99071.50;6307176;22;20010;-88
2022/09/26 03:14:23;;;;;;;49.33;18.20;;;;;;;12.87;100.00;99075.81;6282700;22;20339;-88
2022/09/26 03:16:50;;;;;;;18.80;16.83;;;;;;;12.85;100.00;99067.19;6335511;22;20082;-89
2022/09/26 03:19:45;;;;;;;19.42;17.40;;;;;;;12.83;100.00;99047.41;6307993;22;20490;-88
2022/09/26 03:22:11;;;;;;;20.95;18.40;;;;;;;12.73;100.00;99050.75;6256665;22;20038;-88
2022/09/26 03:24:39;;;;;;;19.95;17.52;;;;;;;12.84;100.00;99039.81;6334763;22;20007;-88
2022/09/26 03:27:05;;;;;;;18.65;16.75;;;;;;;12.81;100.00;99027.66;6306678;22;20498;-88
2022/09/26 03:29:34;;;;;;;18.23;16.33;;;;;;;12.87;100.00;99039.63;6308662;22;20006;-88
2022/09/26 03:32:00;;;;;;;17.88;16.00;;;;;;;12.93;100.00;99060.00;6306020;22;20431;-88
2022/09/26 03:34:26;;;;;;;17.80;15.90;;;;;;;12.91;100.00;99058.94;6281410;22;20156;-88
2022/09/26 03:36:52;;;;;;;17.20;15.35;;;;;;;12.89;100.00;99045.50;6308036;22;20431;-87
2022/09/26 03:39:18;;;;;;;17.00;15.18;;;;;;;12.87;100.00;99028.50;6308424;22;20003;-89
2022/09/26 03:41:55;;;;;;;16.65;15.00;;;;;;;12.88;100.00;98996.66;6308530;22;20027;-89
2022/09/26 03:44:30;;;;;;;17.58;15.77;;;;;;;12.84;100.00;99048.94;6308044;22;20095;-89
2022/09/26 03:47:11;;;;;;;16.98;15.23;;;;;;;12.80;100.00;99061.50;6346755;22;20025;-87
2022/09/26 03:49:46;;;;;;;17.83;16.10;;;;;;;12.83;100.00;99066.88;6285169;22;20412;-89
2022/09/26 03:52:12;;;;;;;17.52;15.73;;;;;;;12.88;100.00;99057.88;6334158;22;20064;-88
2022/09/26 03:54:38;;;;;;;15.75;14.13;;;;;;;12.76;100.00;99044.22;6306728;22;20010;-88
2022/09/26 03:57:04;;;;;;;17.02;15.40;;;;;;;12.80;100.00;99051.16;6334005;22;20014;-89
2022/09/26 03:59:32;;;;;;;15.52;14.02;;;;;;;12.77;100.00;99074.38;6309458;22;20011;-89
2022/09/26 04:01:58;;;;;;;16.75;15.10;;;;;;;12.81;100.00;99074.19;6309328;22;20523;-89
2022/09/26 04:04:24;;;;;;;16.83;15.13;;;;;;;12.77;100.00;99077.16;6310263;22;20014;-88
2022/09/26 04:06:51;;;;;;;17.52;15.73;;;;;;;12.70;100.00;99079.53;6284804;22;20093;-88
2022/09/26 04:09:17;;;;;;;19.27;17.27;;;;;;;12.81;100.00;99091.66;6311327;22;20460;-89
2022/09/26 04:11:46;;;;;;;18.10;16.30;;;;;;;12.77;100.00;99085.50;6285281;22;20011;-89
2022/09/26 04:14:12;;;;;;;18.25;16.13;;;;;;;12.80;100.00;99098.44;6335910;22;20113;-89
2022/09/26 04:16:37;;;;;;;17.50;15.82;;;;;;;12.81;100.00;99102.78;6307126;22;20006;-89
2022/09/26 04:19:14;;;;;;;16.13;14.52;;;;;;;12.86;100.00;99102.09;6310585;22;20171;-88
2022/09/26 04:21:40;;;;;;;15.98;14.27;;;;;;;12.89;100.00;99098.41;6342696;22;20010;-88
2022/09/26 04:24:08;;;;;;;15.15;13.63;;;;;;;12.92;100.00;99091.09;6289285;22;20459;-89
2022/09/26 04:26:34;;;;;;;14.00;12.60;;;;;;;13.00;100.00;99103.41;6287417;22;20323;-89
2022/09/26 04:29:01;;;;;;;14.90;13.40;;;;;;;12.98;100.00;99089.22;6310956;22;20065;-88
2022/09/26 04:31:56;;;;;;;14.40;12.95;;;;;;;12.99;100.00;99079.59;6327377;22;20101;-87
2022/09/26 04:34:28;;;;;;;17.52;14.00;;;;;;;12.99;100.00;99097.06;6339383;22;20011;-88
2022/09/26 04:36:55;;;;;;;15.65;14.15;;;;;;;13.03;100.00;99103.22;6316691;22;20066;-88
2022/09/26 04:39:22;;;;;;;16.30;14.32;;;;;;;13.00;100.00;99112.53;6291419;22;19998;-88
2022/09/26 04:41:48;;;;;;;16.90;15.30;;;;;;;12.94;100.00;99108.84;6343805;22;20013;-86
2022/09/26 04:44:14;;;;;;;15.88;14.30;;;;;;;12.92;100.00;99102.22;6308944;22;20011;-86
2022/09/26 04:46:40;;;;;;;18.42;16.17;;;;;;;12.90;100.00;99096.38;6311770;22;20029;-86
2022/09/26 04:49:06;;;;;;;17.38;15.15;;;;;;;12.87;100.00;99088.97;6313913;22;20002;-87
2022/09/26 04:51:32;;;;;;;17.55;15.73;;;;;;;12.92;100.00;99091.09;6311876;22;20018;-87
2022/09/26 04:53:58;;;;;;;16.92;15.13;;;;;;;13.01;100.00;99085.47;6311071;22;20007;-86
2022/09/26 04:56:27;;;;;;;17.85;15.95;;;;;;;13.01;100.00;99083.44;6314092;22;20021;-86
2022/09/26 04:58:55;;;;;;;16.58;14.98;;;;;;;13.04;100.00;99079.72;6291701;22;20003;-87
2022/09/26 05:01:23;;;;;;;16.40;14.80;;;;;;;13.07;100.00;99075.97;6291966;22;20011;-86
2022/09/26 05:04:09;;;;;;;18.27;14.70;;;;;;;13.07;100.00;99075.19;6287416;22;20014;-86
2022/09/26 05:06:35;;;;;;;16.17;14.57;;;;;;;13.07;100.00;99069.63;6285390;22;20069;-84
2022/09/26 05:09:03;;;;;;;17.25;15.25;;;;;;;13.06;100.00;99062.53;6308536;22;20006;-87
2022/09/26 05:11:59;;;;;;;15.68;14.07;;;;;;;13.08;100.00;99065.59;6315754;22;20019;-86
2022/09/26 05:14:25;;;;;;;15.82;14.23;;;;;;;13.04;100.00;99057.44;6308135;22;20270;-86
2022/09/26 05:16:50;;;;;;;16.63;14.85;;;;;;;13.10;100.00;99046.44;6281292;22;20089;-83
2022/09/26 05:19:16;;;;;;;16.02;14.35;;;;;;;13.08;100.00;99058.03;6307867;22;20007;-83
2022/09/26 05:21:59;;;;;;;16.00;14.40;;;;;;;13.12;100.00;99055.06;6286044;22;20014;-85
2022/09/26 05:27:14;;;;;;;19.23;17.33;;;;;;;13.06;100.00;99043.78;6307875;22;20257;-85
2022/09/26 05:29:39;;;;;;;18.10;16.20;;;;;;;13.15;100.00;99040.19;6303912;22;20176;-85
2022/09/26 05:32:06;;;;;;;18.45;16.55;;;;;;;13.18;100.00;99046.84;6301012;22;20014;-85
2022/09/26 05:34:35;;;;;;;16.73;15.00;;;;;;;13.20;100.00;99041.53;6304926;22;20109;-85
2022/09/26 05:37:02;;;;;;;16.08;14.55;;;;;;;13.25;100.00;99046.44;6303569;22;20387;-86
2022/09/26 05:42:14;;;;;;;16.98;15.38;;;;;;;13.21;100.00;99031.94;6304528;22;20063;-85
2022/09/26 05:44:39;;;;;;;18.83;16.88;;;;;;;13.27;100.00;99043.94;6304215;22;20007;-85
2022/09/26 05:47:06;;;;;;;19.00;17.00;;;;;;;13.27;100.00;99053.06;6335207;22;20022;-93
2022/09/26 05:49:32;;;;;;;19.25;17.35;;;;;;;13.26;100.00;99062.69;6305155;22;19995;-94
2022/09/26 05:51:58;;;;;;;18.17;16.27;;;;;;;13.17;100.00;99051.63;6309456;22;20015;-94
2022/09/26 05:54:24;;;;;;;19.15;17.15;;;;;;;13.21;100.00;99062.59;6308139;22;20029;-95
2022/09/26 05:56:52;;;;;;;17.88;16.05;;;;;;;13.30;100.00;99074.41;6308607;22;20380;-94
2022/09/26 05:59:34;;;;;;;16.95;15.25;;;;;;;13.40;100.00;99089.78;6308997;22;20015;-94
2022/09/26 06:02:05;;;;;;;16.92;15.23;;;;;;;13.38;100.00;99100.66;6344102;22;20038;-95
2022/09/26 06:04:49;;;;;;;17.42;15.68;;;;;;;13.35;100.00;99084.09;6335390;22;20468;-95
2022/09/26 06:07:37;;;;;;;16.23;14.52;;;;;;;13.41;100.00;99082.19;6307877;22;20030;-94
2022/09/26 06:10:08;;;;;;;15.25;13.75;;;;;;;13.49;100.00;99092.47;6334334;22;20011;-94
2022/09/26 06:12:39;;;;;;;16.35;14.77;;;;;;;13.47;100.00;99099.75;6283545;22;20011;-95
2022/09/26 06:15:08;;;;;;;15.48;13.98;;;;;;;13.51;100.00;99103.13;6307439;22;20432;-94
2022/09/26 06:17:34;;;;;;;16.08;14.57;;;;;;;13.53;100.00;99100.66;6307943;22;19999;-94
2022/09/26 06:20:00;;;;;;;15.93;14.40;;;;;;;13.58;100.00;99108.34;6306745;22;20266;-94
2022/09/26 06:22:26;;;;;;;16.42;14.77;;;;;;;13.48;100.00;99099.28;6308021;22;20444;-94
2022/09/26 06:24:52;;;;;;;15.55;14.05;;;;;;;13.53;100.00;99101.41;6309113;22;20007;-94
2022/09/26 06:27:19;;;;;;;16.95;15.25;;;;;;;13.66;100.00;99122.66;6309326;22;20011;-94
2022/09/26 06:29:45;;;;;;;18.17;16.48;;;;;;;13.70;100.00;99112.84;6309411;22;20015;-93
2022/09/26 06:32:10;;;;;;;18.60;16.73;;;;;;;13.62;100.00;99108.16;6311149;22;20013;-94
2022/09/26 06:35:08;;;;;;;18.33;16.55;;;;;;;13.63;100.00;99104.88;6336713;22;20165;-95
2022/09/26 06:37:44;;;;;;;16.98;15.38;;;;;;;13.60;100.00;99108.63;6339191;22;20026;-94
2022/09/26 06:40:10;;;;;;;16.23;14.73;;;;;;;13.80;100.00;99124.66;6312773;22;20052;-94
2022/09/26 06:42:39;;;;;;;16.88;15.18;;;;;;;13.83;100.00;99110.53;6311653;22;20015;-95
2022/09/26 06:45:23;;;;;;;19.35;17.50;;;;;;;13.89;100.00;99111.41;6290070;22;20014;-95
2022/09/26 06:48:07;;;;;;;20.20;18.27;;;;;;;13.88;100.00;99100.72;6338971;22;20029;-94
2022/09/26 06:50:55;;;;;;;20.00;16.75;;;;;;;14.11;100.00;99121.38;6337334;22;20025;-96
2022/09/26 06:53:21;;;;;;;19.70;17.70;;;;;;;14.24;100.00;99105.09;6311352;22;20019;-95
2022/09/26 06:55:47;;;;;;;19.67;17.70;;;;;;;14.42;100.00;99116.81;6311649;22;20335;-94
2022/09/26 06:58:13;;;;;;;18.17;16.48;;;;;;;14.54;100.00;99114.97;6311394;22;19999;-95
2022/09/26 07:00:55;;;;;;;18.17;16.25;;;;;;;14.64;100.00;99107.25;6311793;22;20010;-95
2022/09/26 07:03:41;;;;;;;17.90;15.95;;;;;;;14.86;100.00;99108.28;6336509;22;20508;-95
2022/09/26 07:06:27;;;;;;;16.23;14.73;;;;;;;15.09;100.00;99119.72;6338895;22;20065;-93
2022/09/26 07:08:54;;;;;;;15.68;14.05;;;;;;;15.19;100.00;99112.75;6311454;22;20011;-96
2022/09/26 07:11:36;;;;;;;16.38;14.77;;;;;;;15.26;100.00;99093.53;6312788;22;20471;-95
2022/09/26 07:14:02;;;;;;;15.98;14.45;;;;;;;15.41;100.00;99118.56;6315835;22;20015;-94
2022/09/26 07:16:28;;;;;;;16.40;14.80;;;;;;;15.59;100.00;99109.13;6309884;22;20011;-93
2022/09/26 07:19:11;;;;;;;14.50;13.10;;;;;;;15.84;100.00;99105.56;6287059;22;20064;-93
2022/09/26 07:21:53;;;;;;;14.93;13.52;;;;;;;15.71;100.00;99107.97;6288447;22;20185;-93
2022/09/26 07:24:30;;;;;;;16.00;14.38;;;;;;;15.61;100.00;99107.34;6308692;22;20067;-94
2022/09/26 07:26:56;;;;;;;15.95;14.45;;;;;;;15.69;100.00;99105.66;6309092;22;20013;-94
2022/09/26 07:29:21;;;;;;;15.05;13.55;;;;;;;15.91;100.00;99104.31;6309040;22;20014;-92
2022/09/26 07:31:47;;;;;;;14.27;12.98;;;;;;;15.78;100.00;99097.09;6310808;22;20333;-94
2022/09/26 07:34:23;;;;;;;13.57;12.23;;;;;;;15.93;100.00;99099.78;6336028;22;20003;-92
2022/09/26 07:36:50;;;;;;;14.00;12.70;;;;;;;15.89;100.00;99118.81;6310174;22;20373;-92
2022/09/26 07:39:17;;;;;;;13.90;12.60;;;;;;;16.07;100.00;99126.06;6334468;22;20010;-92
2022/09/26 07:41:44;;;;;;;14.73;13.23;;;;;;;16.00;100.00;99118.13;6309380;22;20050;-92
2022/09/26 07:44:10;;;;;;;13.77;12.38;;;;;;;15.94;100.00;99126.47;6283255;22;20007;-92
2022/09/26 07:52:08;;;;;;;12.48;11.13;;;;;;;16.15;100.00;99129.94;6348968;22;20022;-92
2022/09/26 07:54:48;;;;;;;13.48;12.18;;;;;;;16.31;100.00;99120.91;6335464;22;20042;-92
2022/09/26 07:57:36;;;;;;;13.05;11.63;;;;;;;16.20;100.00;99118.03;6335872;22;20002;-92
2022/09/26 08:00:15;;;;;;;13.80;12.40;;;;;;;16.32;100.00;99125.25;6285922;22;20017;-91
2022/09/26 08:02:59;;;;;;;11.43;10.43;;;;;;;16.50;100.00;99130.44;6287987;22;20098;-92
2022/09/26 08:05:25;;;;;;;11.57;10.50;;;;;;;16.24;100.00;99129.78;6283683;22;20019;-94
2022/09/26 08:07:51;;;;;;;11.60;10.52;;;;;;;16.47;100.00;99128.66;6310252;22;20041;-93
2022/09/26 08:10:41;;;;;;;10.48;9.38;;;;;;;16.71;100.00;99122.72;6280151;22;20433;-93
2022/09/26 08:13:24;;;;;;;11.15;10.05;;;;;;;16.69;100.00;99133.66;6310385;22;20002;-93
2022/09/26 08:16:08;;;;;;;11.15;9.98;;;;;;;16.71;100.00;99137.47;6314824;22;20067;-94
2022/09/26 08:18:39;;;;;;;10.60;9.60;;;;;;;16.77;100.00;99146.69;6309845;22;20018;-94
2022/09/26 08:21:04;;;;;;;11.25;10.25;;;;;;;16.90;100.00;99153.91;6310648;22;20014;-93
2022/09/26 08:23:33;;;;;;;11.82;10.63;;;;;;;16.76;100.00;99156.38;6311400;22;20081;-93
2022/09/26 08:26:39;;;;;;;11.48;10.23;;;;;;;16.88;100.00;99162.03;6212831;23;20004;-94
2022/09/26 08:29:13;;;;;;;10.63;9.52;;;;;;;16.61;100.00;99166.97;6185874;23;20431;-92
2022/09/26 08:31:40;;;;;;;11.20;10.18;;;;;;;16.51;100.00;99162.00;6253589;22;20042;-92
2022/09/26 08:34:07;;;;;;;10.82;9.82;;;;;;;16.59;100.00;99172.28;6311224;22;20499;-92
2022/09/26 08:36:35;;;;;;;11.45;10.30;;;;;;;16.91;100.00;99177.81;6288911;22;20071;-92
2022/09/26 08:39:04;;;;;;;10.73;9.60;;;;;;;17.06;100.00;99167.22;6350482;22;20056;-92
2022/09/26 08:41:54;;;;;;;10.20;9.27;;;;;;;17.13;100.00;99178.72;6348953;22;20019;-92
2022/09/26 08:44:57;;;;;;;10.03;9.03;;;;;;;17.37;100.00;99189.50;6309516;22;20141;-92
2022/09/26 08:48:01;;;;;;;;;;;;;;;17.59;100.00;99198.00;6310798;22;20129;-93
2022/09/26 08:50:59;;;;;;;9.07;8.27;;;;;;;17.63;100.00;99183.78;6309398;22;19960;-92
2022/09/26 08:53:28;;;;;;;8.20;7.40;;;;;;;17.95;100.00;99184.34;6308813;22;20090;-92
2022/09/26 08:55:56;;;;;;;8.13;7.32;;;;;;;17.97;100.00;99182.56;6309652;22;20506;-93
2022/09/26 08:58:36;;;;;;;9.02;8.13;;;;;;;17.95;100.00;99171.09;6309090;22;20007;-92
2022/09/26 09:01:03;;;;;;;8.10;7.30;;;;;;;18.06;100.00;99168.28;6284121;22;20102;-94
2022/09/26 09:03:50;;;;;;;8.52;7.72;;;;;;;17.98;100.00;99166.50;6283697;22;20011;-94
2022/09/26 09:06:16;;;;;;;8.55;7.75;;;;;;;17.76;100.00;99161.59;6310104;22;20011;-93
2022/09/26 09:08:49;;;;;;;7.70;6.90;;;;;;;17.80;100.00;99158.53;6283514;22;20021;-94
2022/09/26 09:12:07;;;;;;;9.77;7.28;;;;;;;17.83;100.00;99163.16;6314252;22;20140;-94
2022/09/26 09:15:02;;;;;;;7.75;7.03;;;;;;;18.29;100.00;99163.44;6285780;22;20011;-93
2022/09/26 09:17:36;;;;;;;6.80;6.10;;;;;;;18.61;100.00;99159.09;6286641;22;20023;-93
2022/09/26 09:20:55;;;;;;;7.45;6.13;;;;;;;18.70;100.00;99162.91;6338898;22;20379;-94
2022/09/26 09:23:59;;;;;;;7.72;6.30;;;;;;;18.89;95.04;99153.41;6328605;22;20098;-92
2022/09/26 09:26:56;;;;;;;7.30;5.60;;;;;;;19.04;96.62;99151.09;6312677;22;20041;-93
2022/09/26 09:29:43;;;;;;;7.10;6.40;;;;;;;19.25;90.61;99148.66;6336354;22;20011;-93
2022/09/26 09:32:40;;;;;;;7.13;6.43;;;;;;;19.01;91.02;99151.31;6336818;22;20381;-92
2022/09/26 09:35:16;;;;;;;6.75;6.05;;;;;;;19.24;88.64;99155.59;6282879;22;20019;-92
2022/09/26 09:37:58;;;;;;;7.03;6.32;;;;;;;19.18;89.22;99146.41;6309160;22;20007;-94
2022/09/26 09:41:05;;;;;;;8.10;7.32;;;;;;;19.11;85.42;99158.19;6290768;22;20026;-92
2022/09/26 09:43:38;;;;;;;8.23;7.43;;;;;;;18.72;88.27;99160.34;6336318;22;20026;-92
2022/09/26 09:46:23;;;;;;;7.72;6.93;;;;;;;18.78;88.44;99163.91;6309305;22;20352;-92
2022/09/26 09:48:49;;;;;;;7.93;7.13;;;;;;;19.00;93.29;99159.00;6336409;22;20024;-93
2022/09/26 09:51:39;;;;;;;7.22;6.30;;;;;;;19.43;91.75;99153.75;6283798;22;20007;-93
2022/09/26 09:54:13;;;;;;;7.60;6.90;;;;;;;19.70;86.23;99151.28;6283862;22;20105;-94
2022/09/26 09:57:07;;;;;;;7.55;6.85;;;;;;;19.62;87.08;99141.88;6309601;22;20011;-94
2022/09/26 09:59:53;;;;;;;9.50;6.80;;;;;;;19.41;88.01;99136.56;6336683;22;20425;-92
2022/09/26 10:02:19;;;;;;;7.20;6.50;;;;;;;19.46;83.63;99121.75;6337278;22;20011;-94
2022/09/26 10:04:49;;;;;;;7.70;6.90;;;;;;;19.61;85.18;99126.28;6310557;22;20319;-93
2022/09/26 10:07:15;;;;;;;7.38;6.70;;;;;;;19.41;88.22;99133.75;6311904;22;20007;-92
2022/09/26 10:09:52;;;;;;;7.15;6.32;;;;;;;19.42;86.20;99112.03;6263642;22;20006;-94
2022/09/26 10:12:50;;;;;;;7.25;6.25;;;;;;;19.68;86.08;99128.53;6281063;22;20019;-92
2022/09/26 10:15:56;;;;;;;;;;;;;;;19.79;85.25;99134.84;6243902;23;20023;-93
2022/09/26 10:19:04;;;;;;;7.10;6.40;;;;;;;19.90;84.49;99136.81;6334605;22;19999;-93
2022/09/26 10:21:42;;;;;;;7.07;6.38;;;;;;;19.82;85.14;99144.28;6311605;22;20011;-94
2022/09/26 10:24:39;;;;;;;7.22;6.53;;;;;;;20.01;83.64;99142.38;6285251;22;20514;-93
2022/09/26 10:27:21;;;;;;;7.43;6.72;;;;;;;19.80;81.44;99149.69;6311310;22;20061;-94
2022/09/26 10:29:55;;;;;;;6.53;5.93;;;;;;;19.82;81.40;99135.84;6285478;22;20030;-92
2022/09/26 10:32:21;;;;;;;6.53;5.88;;;;;;;19.81;81.32;99126.66;6284855;22;20101;-93
2022/09/26 10:35:06;;;;;;;6.97;6.35;;;;;;;20.13;82.17;99138.19;6309429;22;20019;-92
2022/09/26 10:37:35;;;;;;;7.20;6.50;;;;;;;20.28;79.52;99143.44;6285139;22;20235;-94
2022/09/26 10:43:29;;;;;;;6.75;6.15;;;;;;;19.72;84.38;99137.47;6289041;22;20021;-93
2022/09/26 10:46:00;;;;;;;7.30;6.60;;;;;;;19.53;81.98;99138.06;6310285;22;20018;-93
2022/09/26 10:48:57;;;;;;;7.55;6.68;;;;;;;19.53;81.17;99149.31;6319089;22;20026;-93
2022/09/26 10:52:12;;;;;;;7.32;6.60;;;;;;;19.46;81.39;99127.38;6195366;23;20036;-92
2022/09/26 10:54:41;;;;;;;7.32;6.60;;;;;;;19.54;79.55;99125.53;6186988;23;20083;-93
2022/09/26 10:57:17;;;;;;;7.13;6.40;;;;;;;19.69;81.98;99101.94;6285289;22;20555;-93
2022/09/26 10:59:44;;;;;;;7.00;6.30;;;;;;;19.72;81.89;99120.59;6311382;22;20018;-93
2022/09/26 11:02:16;;;;;;;7.40;6.40;;;;;;;19.78;83.14;99115.66;6310458;22;20018;-94
2022/09/26 11:07:51;;;;;;;7.45;6.65;;;;;;;20.14;81.46;99119.25;6320537;22;20407;-93
2022/09/26 11:10:31;;;;;;;7.70;6.90;;;;;;;19.66;78.33;99125.47;6317206;22;20015;-92
2022/09/26 11:13:15;;;;;;;8.30;6.95;;;;;;;19.20;82.08;99124.19;6312161;22;20093;-92
2022/09/26 11:16:02;;;;;;;8.18;7.38;;;;;;;19.07;85.99;99127.56;6309625;22;20411;-92
2022/09/26 11:18:44;;;;;;;7.68;6.88;;;;;;;19.08;86.13;99131.13;6310012;22;20156;-94
2022/09/26 11:21:36;;;;;;;7.47;6.68;;;;;;;19.27;83.45;99118.00;6309706;22;20430;-92
2022/09/26 11:24:30;;;;;;;7.30;6.55;;;;;;;19.57;84.79;99106.13;6311021;22;20100;-91
2022/09/26 11:27:09;;;;;;;7.07;6.35;;;;;;;19.77;82.37;99094.47;6288287;22;20011;-93
2022/09/26 11:30:08;;;;;;;8.45;7.65;;;;;;;19.83;78.82;99092.34;6313120;22;20093;-92
2022/09/26 11:32:41;;;;;;;7.63;6.63;;;;;;;20.07;78.37;99094.47;6285731;22;20025;-92
2022/09/26 11:35:52;;;;;;;7.70;7.00;;;;;;;19.93;79.03;99096.38;6336358;22;20022;-90
2022/09/26 11:38:29;;;;;;;6.60;6.00;;;;;;;20.36;80.91;99091.69;6309191;22;20050;-92
2022/09/26 11:41:37;;;;;;;5.95;5.45;;;;;;;20.28;76.54;99087.13;6310195;22;20328;-92
2022/09/26 11:44:43;;;;;;;6.82;6.22;;;;;;;20.25;75.80;99088.19;6312182;22;20057;-93
2022/09/26 11:47:59;;;;;;;6.70;6.00;;;;;;;20.34;79.28;99087.88;6280807;22;20015;-93
2022/09/26 11:50:44;;;;;;;7.05;6.35;;;;;;;20.56;77.55;99065.09;6309479;22;20049;-92
2022/09/26 11:53:34;;;;;;;7.10;6.40;;;;;;;20.31;76.20;99075.59;6310189;22;20060;-92
2022/09/26 11:56:15;;;;;;;6.95;6.28;;;;;;;20.43;79.21;99077.00;6309718;22;20452;-92
2022/09/26 11:58:42;;;;;;;7.80;6.15;;;;;;;20.55;76.44;99076.88;6339354;22;20018;-92
2022/09/26 12:01:20;;;;;;;6.97;6.07;;;;;;;20.42;77.91;99078.28;6339241;22;20326;-92
2022/09/26 12:04:10;;;;;;;7.38;6.25;;;;;;;20.47;77.59;99066.19;6336897;22;20441;-92
2022/09/26 12:06:45;;;;;;;6.53;5.82;;;;;;;20.62;75.90;99062.22;6309507;22;20417;-92
2022/09/26 12:09:40;;;;;;;8.30;6.88;;;;;;;20.81;74.95;99065.84;6338356;22;20038;-92
2022/09/26 12:12:27;;;;;;;5.90;5.40;;;;;;;20.93;72.27;99067.22;6331621;22;20353;-91
2022/09/26 12:15:24;;;;;;;6.32;5.75;;;;;;;20.82;71.52;99062.50;6309275;22;20388;-92
2022/09/26 12:18:12;;;;;;;5.88;5.30;;;;;;;20.58;73.40;99042.81;6336789;22;20318;-93